createdAt,value
2023-03-10T00:01:10.230Z,100.00
2023-03-10T00:05:11.959Z,100.00
2023-03-10T00:09:14.721Z,100.00
2023-03-10T00:13:16.132Z,100.00
2023-03-10T00:17:17.566Z,100.00
2023-03-10T00:21:22.190Z,100.00
2023-03-10T00:25:24.963Z,100.00
2023-03-10T00:29:26.419Z,100.00
2023-03-10T00:33:29.425Z,100.00
2023-03-10T00:37:30.879Z,100.00
2023-03-10T00:41:37.742Z,98.65
2023-03-10T00:45:39.160Z,97.50
2023-03-10T00:49:40.656Z,97.08
2023-03-10T00:53:42.775Z,97.09
2023-03-10T00:57:45.542Z,95.15
2023-03-10T01:01:47.067Z,94.56
2023-03-10T01:05:48.543Z,94.56
2023-03-10T01:09:50.001Z,93.14
2023-03-10T01:13:53.644Z,93.99
2023-03-10T01:17:55.067Z,93.61
2023-03-10T01:21:56.556Z,94.18
2023-03-10T01:25:58.101Z,92.82
2023-03-10T01:30:00.896Z,91.93
2023-03-10T01:34:02.512Z,91.72
2023-03-10T01:38:05.244Z,90.74
2023-03-10T01:42:06.742Z,92.06
2023-03-10T01:46:34.311Z,91.16
2023-03-10T01:50:35.987Z,90.62
2023-03-10T01:54:44.030Z,90.30
2023-03-10T01:58:46.981Z,90.24
2023-03-10T02:02:55.642Z,89.50
2023-03-10T02:06:57.960Z,88.51
2023-03-10T02:11:01.187Z,89.68
2023-03-10T02:15:02.996Z,90.00
2023-03-10T02:19:12.235Z,90.03
2023-03-10T02:23:17.135Z,89.90
2023-03-10T02:27:22.270Z,89.78
2023-03-10T02:31:24.434Z,90.20
2023-03-10T02:35:25.985Z,89.58
2023-03-10T02:39:27.452Z,89.54
2023-03-10T02:43:33.332Z,89.50
2023-03-10T02:47:34.800Z,91.17
2023-03-10T02:51:40.562Z,90.55
2023-03-10T02:55:42.083Z,91.79
2023-03-10T02:59:44.873Z,91.66
2023-03-10T03:03:46.499Z,93.12
2023-03-10T03:07:47.994Z,93.36
2023-03-10T03:11:49.466Z,94.57
2023-03-10T03:15:52.296Z,95.27
2023-03-10T03:19:53.810Z,95.82
2023-03-10T03:23:55.288Z,96.45
2023-03-10T03:27:57.314Z,96.98
2023-03-10T03:32:00.199Z,96.60
2023-03-10T03:36:01.874Z,95.70
2023-03-10T03:40:04.037Z,95.41
2023-03-10T03:44:05.559Z,95.44
2023-03-10T03:48:09.381Z,95.03
2023-03-10T03:52:10.962Z,94.67
2023-03-10T03:56:12.450Z,93.56
2023-03-10T04:00:18.577Z,93.94
2023-03-10T04:04:21.353Z,92.78
2023-03-10T04:08:22.892Z,92.81
2023-03-10T04:12:24.529Z,93.23
2023-03-10T04:16:26.112Z,92.31
2023-03-10T04:20:28.966Z,91.86
2023-03-10T04:24:30.412Z,91.58
2023-03-10T04:28:31.896Z,90.80
2023-03-10T04:32:33.544Z,90.61
2023-03-10T04:36:36.428Z,89.12
2023-03-10T04:40:37.913Z,88.39
2023-03-10T04:44:39.406Z,88.68
2023-03-10T04:48:40.944Z,88.67
2023-03-10T04:52:44.315Z,88.16
2023-03-10T04:56:45.777Z,88.39
2023-03-10T05:01:02.140Z,87.93
2023-03-10T05:05:04.712Z,87.84
2023-03-10T05:09:07.591Z,87.49
2023-03-10T05:13:09.117Z,86.99
2023-03-10T05:17:10.704Z,87.12
2023-03-10T05:21:12.961Z,87.38
2023-03-10T05:25:15.739Z,87.29
2023-03-10T05:29:17.270Z,86.87
2023-03-10T05:33:18.737Z,85.93
2023-03-10T05:37:20.351Z,85.77
2023-03-10T05:41:23.243Z,85.42
2023-03-10T05:45:24.926Z,85.78
2023-03-10T05:49:26.628Z,85.68
2023-03-10T05:53:28.343Z,85.85
2023-03-10T05:57:31.182Z,85.94
2023-03-10T06:01:32.985Z,85.57
2023-03-10T06:05:34.428Z,85.67
2023-03-10T06:09:35.911Z,86.41
2023-03-10T06:13:38.773Z,85.38
2023-03-10T06:17:40.239Z,85.94
2023-03-10T06:21:41.706Z,85.91
2023-03-10T06:25:43.218Z,84.72
2023-03-10T06:29:46.006Z,85.13
2023-03-10T06:33:47.739Z,84.87
2023-03-10T06:37:49.209Z,85.44
2023-03-10T06:41:50.697Z,85.40
2023-03-10T06:45:53.639Z,85.21
2023-03-10T06:49:55.300Z,86.69
2023-03-10T06:53:56.765Z,86.22
2023-03-10T06:57:58.236Z,85.38
2023-03-10T07:02:01.023Z,85.09
2023-03-10T07:06:02.516Z,85.18
2023-03-10T07:10:07.762Z,85.48
2023-03-10T07:14:09.735Z,85.20
2023-03-10T07:18:13.163Z,84.79
2023-03-10T07:22:14.695Z,84.88
2023-03-10T07:26:17.294Z,83.68
2023-03-10T07:30:19.078Z,84.58
2023-03-10T07:34:21.879Z,85.40
2023-03-10T07:38:23.460Z,84.39
2023-03-10T07:42:27.955Z,85.31
2023-03-10T07:46:30.172Z,84.75
2023-03-10T07:50:33.726Z,84.07
2023-03-10T07:54:35.787Z,83.26
2023-03-10T07:58:38.056Z,81.99
2023-03-10T08:02:40.898Z,81.51
2023-03-10T08:06:45.213Z,83.17
2023-03-10T08:10:46.856Z,81.43
2023-03-10T08:14:48.725Z,79.89
2023-03-10T08:18:50.842Z,80.11
2023-03-10T08:22:53.968Z,77.76
2023-03-10T08:26:55.474Z,79.03
2023-03-10T08:31:04.859Z,77.90
2023-03-10T08:35:08.273Z,77.98
2023-03-10T08:39:12.438Z,78.31
2023-03-10T08:43:14.054Z,76.66
2023-03-10T08:47:15.756Z,76.73
2023-03-10T08:51:18.546Z,75.11
2023-03-10T08:55:21.514Z,74.32
2023-03-10T08:59:23.131Z,73.35
2023-03-10T09:03:24.971Z,72.43
2023-03-10T09:07:26.552Z,70.16
2023-03-10T09:11:31.636Z,69.51
2023-03-10T09:15:33.766Z,69.96
2023-03-10T09:19:35.307Z,67.64
2023-03-10T09:23:37.411Z,65.78
2023-03-10T09:27:40.329Z,65.88
2023-03-10T09:31:42.151Z,66.98
2023-03-10T09:35:52.440Z,63.84
2023-03-10T09:39:54.612Z,65.28
2023-03-10T09:44:02.540Z,63.40
2023-03-10T09:48:12.626Z,63.24
2023-03-10T09:52:21.076Z,63.64
2023-03-10T09:56:29.715Z,63.36
2023-03-10T10:00:37.845Z,63.96
2023-03-10T10:04:41.602Z,62.23
2023-03-10T10:08:54.902Z,62.67
2023-03-10T10:13:13.678Z,58.72
2023-03-10T10:17:28.920Z,58.56
2023-03-10T10:21:42.619Z,57.52
2023-03-10T10:25:44.565Z,58.27
2023-03-10T10:29:46.000Z,59.42
2023-03-10T10:33:57.911Z,57.83
2023-03-10T10:38:01.719Z,58.60
2023-03-10T10:42:14.061Z,58.31
2023-03-10T10:46:23.023Z,58.48
2023-03-10T10:50:28.316Z,58.84
2023-03-10T10:54:36.759Z,60.20
2023-03-10T10:58:39.889Z,59.10
2023-03-10T11:02:41.392Z,60.18
2023-03-10T11:06:44.682Z,59.44
2023-03-10T11:10:55.001Z,60.54
2023-03-10T11:15:09.308Z,61.04
2023-03-10T11:19:21.727Z,61.63
2023-03-10T11:23:31.059Z,60.31
2023-03-10T11:27:46.240Z,58.99
2023-03-10T11:31:55.038Z,60.19
2023-03-10T11:36:09.913Z,58.74
2023-03-10T11:40:19.391Z,58.68
2023-03-10T11:44:27.978Z,59.53
2023-03-10T11:48:48.988Z,58.41
2023-03-10T11:52:54.189Z,60.33
2023-03-10T11:56:58.218Z,57.98
2023-03-10T12:01:00.567Z,57.00
2023-03-10T12:05:07.818Z,56.61
2023-03-10T12:09:18.199Z,59.36
2023-03-10T12:13:25.365Z,54.72
2023-03-10T12:17:27.497Z,57.19
2023-03-10T12:21:30.951Z,55.65
2023-03-10T12:25:44.037Z,56.58
2023-03-10T12:29:47.256Z,58.60
2023-03-10T12:33:52.714Z,58.69
2023-03-10T12:38:27.382Z,59.76
2023-03-10T12:42:32.116Z,59.84
2023-03-10T12:46:47.835Z,58.81
2023-03-10T12:50:54.566Z,59.66
2023-03-10T12:55:05.382Z,59.72
2023-03-10T12:59:16.936Z,59.51
2023-03-10T13:03:27.403Z,60.01
2023-03-10T13:07:30.155Z,59.40
2023-03-10T13:11:36.394Z,58.02
2023-03-10T13:15:37.817Z,57.30
2023-03-10T13:19:40.577Z,53.30
2023-03-10T13:23:43.321Z,53.13
2023-03-10T13:27:44.760Z,49.09
2023-03-10T13:31:53.051Z,44.97
2023-03-10T13:35:56.304Z,46.13
2023-03-10T13:40:07.446Z,51.54
2023-03-10T13:44:17.143Z,52.34
2023-03-10T13:48:19.208Z,52.94
2023-03-10T13:52:24.046Z,54.78
2023-03-10T13:56:28.125Z,55.87
2023-03-10T14:00:29.656Z,57.22
2023-03-10T14:04:46.775Z,59.31
2023-03-10T14:08:50.335Z,58.35
2023-03-10T14:12:53.649Z,61.94
2023-03-10T14:16:56.967Z,63.16
2023-03-10T14:21:40.964Z,64.67
2023-03-10T14:25:50.887Z,65.78
2023-03-10T14:29:54.361Z,69.26
2023-03-10T14:33:56.316Z,82.73
2023-03-10T14:37:57.772Z,89.08
2023-03-10T14:42:00.835Z,91.05
2023-03-10T14:46:02.609Z,91.32
2023-03-10T14:50:04.656Z,92.43
2023-03-10T14:54:15.770Z,94.53
2023-03-10T14:58:20.921Z,93.81
2023-03-10T15:02:25.209Z,97.36
2023-03-10T15:06:30.126Z,99.05
2023-03-10T15:10:36.081Z,96.30
2023-03-10T15:14:38.918Z,97.39
2023-03-10T15:18:40.416Z,98.52
2023-03-10T15:22:42.280Z,95.45
2023-03-10T15:26:43.815Z,95.53
2023-03-10T15:30:46.832Z,95.21
2023-03-10T15:34:48.327Z,90.62
2023-03-10T15:38:49.850Z,89.22
2023-03-10T15:42:52.409Z,91.01
2023-03-10T15:46:55.337Z,92.13
2023-03-10T15:50:56.924Z,88.96
2023-03-10T15:54:58.357Z,87.67
2023-03-10T15:58:59.816Z,89.75
2023-03-10T16:03:02.680Z,87.52
2023-03-10T16:07:04.799Z,89.54
2023-03-10T16:11:08.169Z,87.22
2023-03-10T16:15:11.007Z,89.25
2023-03-10T16:19:14.002Z,90.74
2023-03-10T16:23:15.540Z,86.92
2023-03-10T16:27:16.991Z,87.40
2023-03-10T16:31:20.525Z,87.33
2023-03-10T16:35:23.320Z,90.16
2023-03-10T16:39:24.986Z,86.55
2023-03-10T16:43:28.695Z,86.04
2023-03-10T16:47:30.188Z,84.38
2023-03-10T16:51:35.309Z,82.71
2023-03-10T16:55:37.588Z,83.83
2023-03-10T16:59:39.361Z,85.21
2023-03-10T17:03:41.201Z,87.79
2023-03-10T17:07:55.016Z,86.16
2023-03-10T17:11:57.222Z,86.18
2023-03-10T17:15:58.746Z,88.08
2023-03-10T17:20:00.245Z,87.85
2023-03-10T17:24:03.721Z,86.56
2023-03-10T17:28:05.266Z,86.55
2023-03-10T17:32:06.729Z,86.32
2023-03-10T17:36:09.851Z,85.48
2023-03-10T17:40:13.482Z,85.27
2023-03-10T17:44:15.593Z,83.39
2023-03-10T17:48:17.132Z,84.65
2023-03-10T17:52:18.615Z,84.28
2023-03-10T17:56:21.763Z,84.60
2023-03-10T18:00:24.188Z,85.83
2023-03-10T18:04:25.673Z,84.90
2023-03-10T18:08:27.123Z,85.00
2023-03-10T18:12:30.232Z,85.02
2023-03-10T18:16:33.834Z,85.57
2023-03-10T18:20:35.279Z,85.93
2023-03-10T18:24:38.090Z,85.26
2023-03-10T18:28:41.568Z,86.22
2023-03-10T18:32:43.322Z,87.18
2023-03-10T18:36:44.959Z,88.34
2023-03-10T18:40:46.870Z,88.32
2023-03-10T18:44:49.747Z,86.46
2023-03-10T18:48:51.292Z,86.86
2023-03-10T18:52:52.835Z,86.31
2023-03-10T18:56:54.346Z,85.99
2023-03-10T19:00:57.447Z,87.08
2023-03-10T19:04:59.096Z,87.18
2023-03-10T19:09:01.335Z,88.16
2023-03-10T19:13:03.330Z,87.84
2023-03-10T19:17:06.291Z,87.91
2023-03-10T19:21:07.945Z,88.86
2023-03-10T19:25:11.553Z,87.38
2023-03-10T19:29:13.080Z,87.41
2023-03-10T19:33:16.026Z,87.98
2023-03-10T19:37:17.733Z,86.80
2023-03-10T19:41:19.881Z,86.38
2023-03-10T19:45:21.661Z,85.44
2023-03-10T19:49:24.702Z,84.65
2023-03-10T19:53:27.987Z,84.11
2023-03-10T19:57:29.570Z,85.40
2023-03-10T20:01:31.036Z,85.57
2023-03-10T20:05:33.932Z,85.37
2023-03-10T20:09:35.655Z,86.24
2023-03-10T20:13:37.331Z,88.17
2023-03-10T20:17:39.141Z,89.95
2023-03-10T20:21:42.096Z,91.33
2023-03-10T20:25:44.605Z,92.57
2023-03-10T20:29:46.090Z,91.16
2023-03-10T20:33:51.086Z,90.23
2023-03-10T20:37:54.113Z,90.32
2023-03-10T20:41:55.619Z,89.74
2023-03-10T20:45:57.166Z,90.30
2023-03-10T20:49:58.868Z,92.88
2023-03-10T20:54:01.735Z,95.31
2023-03-10T20:58:03.219Z,94.37
2023-03-10T21:02:04.884Z,91.81
2023-03-10T21:06:06.696Z,90.38
2023-03-10T21:10:11.833Z,89.69
2023-03-10T21:14:13.386Z,89.97
2023-03-10T21:18:14.864Z,88.58
2023-03-10T21:22:16.453Z,88.89
2023-03-10T21:26:20.805Z,89.87
2023-03-10T21:30:22.303Z,89.96
2023-03-10T21:34:23.760Z,90.19
2023-03-10T21:38:25.290Z,89.28
2023-03-10T21:42:28.119Z,88.89
2023-03-10T21:46:30.084Z,89.81
2023-03-10T21:50:32.108Z,89.32
2023-03-10T21:54:33.626Z,89.86
2023-03-10T21:58:36.990Z,89.97
2023-03-10T22:02:38.473Z,89.11
2023-03-10T22:06:39.973Z,88.82
2023-03-10T22:10:41.491Z,89.85
2023-03-10T22:14:44.301Z,90.07
2023-03-10T22:18:46.203Z,90.72
2023-03-10T22:22:48.081Z,90.93
2023-03-10T22:26:49.561Z,91.91
2023-03-10T22:30:52.457Z,93.89
2023-03-10T22:34:53.983Z,93.60
2023-03-10T22:38:55.500Z,94.18
2023-03-10T22:42:57.209Z,95.53
2023-03-10T22:47:00.024Z,97.17
2023-03-10T22:51:06.325Z,97.57
2023-03-10T22:55:10.207Z,95.83
2023-03-10T22:59:11.631Z,94.64
2023-03-10T23:03:14.519Z,95.62
2023-03-10T23:07:16.003Z,96.97
2023-03-10T23:11:17.620Z,96.67
2023-03-10T23:15:25.367Z,96.27
2023-03-10T23:19:28.524Z,97.27
2023-03-10T23:23:29.976Z,97.66
2023-03-10T23:27:31.491Z,97.65
2023-03-10T23:31:33.000Z,97.35
2023-03-10T23:35:36.213Z,96.36
2023-03-10T23:39:37.712Z,96.04
2023-03-10T23:43:39.326Z,96.61
2023-03-10T23:47:41.506Z,92.72
2023-03-10T23:51:44.477Z,92.84
2023-03-10T23:55:46.767Z,93.00
2023-03-10T23:59:48.338Z,95.27
